Nearby METAR Reports

 

KRYN - Tucson/Ryan Fld, Arizona, USA
Distance from station: SSW 16mi, 26km
Updated: Mon, 23-Apr-2018 7:45pm MST
NOT Current
Clear
Clear
 Wind from NNW
Wind: NNW 5 mph , 7 km/h
Temperature: 81°F , 27°C
Dew Point: 21°F , -6°C
Humidity: 11%
Barometer: 29.95 inHg , 1014.2 hPa
Clouds: Clear
Visibility: 10 miles , 16 km
2018/04/24 02:45 KRYN 240245Z 33004KT 10SM CLR 27/M06 A2995 RMK LAST
KTUS - Tucson, Arizona, USA
Distance from station: SSE 18mi, 28km
Updated: Tue, 24-Apr-2018 12:53am MST
Clear
Clear
 Wind from ESE
Wind: ESE 6 mph , 9 km/h
Temperature: 68°F , 20°C
Dew Point: 25°F , -4°C
Humidity: 20%
Barometer: 30.03 inHg , 1016.9 hPa
Clouds: Clear
Visibility: 10 miles , 16 km
2018/04/24 07:53 KTUS 240753Z 12005KT 10SM CLR 20/M04 A3003 RMK AO2 SLP125 T02001044
 
KDMA - Davis/Tucson, Arizona, USA
Distance from station: SE 18mi, 29km
Updated: Mon, 23-Apr-2018 11:58pm MST
NOT Current
Clear
Clear
 Wind from SW
Wind: SW 5 mph , 7 km/h
Temperature: 66°F , 19°C
Dew Point: 23°F , -5°C
Humidity: 19%
Barometer: 30.01 inHg , 1016.3 hPa
Clouds: Clear
Visibility: 10 miles , 16 km
2018/04/24 06:58 KDMA 240658Z AUTO 22004KT 10SM CLR 19/M05 A3001 RMK AO2 SLP123 T01891046 403450135 $
KCGZ - Casa Granda, Arizona, USA
Distance from station: NW 57mi, 92km
Updated: Tue, 24-Apr-2018 12:56am MST
Clear
Clear
 Wind from WSW
Wind: WSW 6 mph , 9 km/h
Temperature: 72°F , 22°C
Dew Point: 25°F , -4°C
Humidity: 17%
Barometer: 29.94 inHg , 1013.9 hPa
Clouds: Clear
Visibility: 10 miles , 16 km
2018/04/24 07:56 KCGZ 240756Z AUTO 25005KT 10SM CLR 22/M04 A2994 RMK AO2 SLP123 T02221039 $
 
KALK - Pioneer Airfield, Arizona, USA
Distance from station: SE 65mi, 104km
Updated: Tue, 24-Apr-2018 12:56am MST
Clear
Clear
 Wind from W
Wind: W 10 mph , 17 km/h
Temperature: 55°F , 13°C
Dew Point: 18°F , -8°C
Humidity: 23%
Barometer: 30.15 inHg , 1021 hPa
Clouds: Clear
Visibility: 10 miles , 16 km
2018/04/24 07:56 KALK 240756Z AUTO 26009KT 10SM CLR 13/M08 A3015 RMK AO2 SLP122 T01331083
KOLS - Nogales, Arizona, USA
Distance from station: S 67mi, 108km
Updated: Tue, 24-Apr-2018 12:54am MST
Clear
Clear
 Wind from E
Wind: E 7 mph , 11 km/h
Temperature: 59°F , 15°C
Dew Point: 23°F , -5°C
Humidity: 25%
Barometer: 30.09 inHg , 1019 hPa
Clouds: Clear
Visibility: 10 miles , 16 km
2018/04/24 07:54 KOLS 240754Z AUTO 08006KT 10SM CLR 15/M05 A3009 RMK AO2 SLP124 T01501050
 
KFHU - Fort Huachuca, Arizona, USA
Distance from station: SE 69mi, 110km
Updated: Tue, 24-Apr-2018 12:58am MST
Clear
Clear
 Wind from W
Wind: W 10 mph , 17 km/h
Temperature: 64°F , 18°C
Dew Point: 16°F , -9°C
Humidity: 15%
Barometer: 30.13 inHg , 1020.3 hPa
Clouds: Clear
Visibility: 10 miles , 16 km
2018/04/24 07:58 KFHU 240758Z AUTO 26009KT 10SM CLR 18/M09 A3013 RMK AO2 SLP132 T01791095
KIWA - Chandler/Mesa, Arizona, USA
Distance from station: NNW 73mi, 117km
Updated: Tue, 24-Apr-2018 1:15am MST
Clear
Clear
 Wind from SSE
Wind: SSE 6 mph , 9 km/h
Temperature: 66°F , 19°C
Dew Point: 34°F , 1°C
Humidity: 30%
Barometer: 29.93 inHg , 1013.5 hPa
Clouds: Clear
Visibility: 10 miles , 16 km
2018/04/24 08:15 KIWA 240815Z AUTO 15005KT 10SM CLR 19/01 A2993 RMK AO2 T01880006